Time;durP1;ratioP1;P1;durP2;ratioP2;P2;SDS_P1;SDS_P2;PMS_P1;PMS_P2;Temp;Humidity;BMP_temperature;BMP_pressure;BME280_temperature;BME280_humidity;BME280_pressure;Samples;Min_cycle;Max_cycle;Signal;HPM_P1;HPM_P2
2023/08/22 00:00:15;;;;;;;7.60;5.25;;;;;;;26.70;65.05;100214.22;4921146;28;20052;-84
2023/08/22 00:02:43;;;;;;;9.00;5.13;;;;;;;26.67;65.25;100203.78;4908315;29;20545;-84
2023/08/22 00:05:11;;;;;;;5.82;4.40;;;;;;;26.67;65.51;100201.91;4926712;28;20123;-84
2023/08/22 00:07:39;;;;;;;7.85;4.90;;;;;;;26.67;65.53;100203.78;4907855;28;20105;-85
2023/08/22 00:10:08;;;;;;;8.82;5.60;;;;;;;26.62;65.43;100202.59;4917450;28;20878;-84
2023/08/22 00:12:35;;;;;;;7.43;5.38;;;;;;;26.59;65.58;100203.06;4924646;28;20047;-84
2023/08/22 00:15:05;;;;;;;6.43;5.28;;;;;;;26.57;65.59;100205.19;4911304;28;20055;-84
2023/08/22 00:17:32;;;;;;;6.63;4.90;;;;;;;26.56;65.42;100203.53;4920453;28;20067;-84
2023/08/22 00:19:59;;;;;;;6.95;5.40;;;;;;;26.59;65.13;100204.97;4902010;28;20054;-84
2023/08/22 00:22:25;;;;;;;8.88;5.10;;;;;;;26.58;65.13;100206.00;4909086;29;20047;-84
2023/08/22 00:24:52;;;;;;;9.20;5.72;;;;;;;26.60;64.69;100209.34;4932154;28;20134;-84
2023/08/22 00:27:19;;;;;;;8.80;5.63;;;;;;;26.58;65.06;100204.09;4922878;28;20051;-84
2023/08/22 00:29:46;;;;;;;8.35;5.03;;;;;;;26.59;64.48;100210.41;4908621;28;20052;-84
2023/08/22 00:32:14;;;;;;;8.07;5.38;;;;;;;26.56;64.33;100205.41;4939256;28;20067;-84
2023/08/22 00:34:41;;;;;;;6.55;5.70;;;;;;;26.54;64.10;100205.66;4933607;28;20687;-84
2023/08/22 00:37:08;;;;;;;7.30;5.53;;;;;;;26.53;64.37;100208.59;4936724;28;20047;-84
2023/08/22 00:39:35;;;;;;;7.82;5.20;;;;;;;26.52;64.93;100209.63;4925673;28;20051;-84
2023/08/22 00:42:02;;;;;;;10.73;5.60;;;;;;;26.47;64.79;100204.88;4888514;28;20062;-85
2023/08/22 00:44:29;;;;;;;9.85;5.25;;;;;;;26.47;65.04;100204.88;4904526;28;20102;-84
2023/08/22 00:46:55;;;;;;;6.95;5.53;;;;;;;26.44;65.10;100202.63;4921310;28;20050;-84
2023/08/22 00:49:22;;;;;;;6.93;5.55;;;;;;;26.45;64.91;100200.72;4893981;28;20484;-85
2023/08/22 00:51:49;;;;;;;9.93;5.40;;;;;;;26.44;64.76;100197.19;4923156;28;20056;-84
2023/08/22 00:54:17;;;;;;;5.75;5.00;;;;;;;26.42;65.12;100200.13;4906102;28;20035;-83
2023/08/22 00:56:44;;;;;;;6.38;5.18;;;;;;;26.43;65.03;100195.50;4926705;28;20054;-85
2023/08/22 00:59:11;;;;;;;13.10;6.35;;;;;;;26.39;64.79;100197.88;4908975;28;20131;-84
2023/08/22 01:01:38;;;;;;;7.00;5.10;;;;;;;26.36;64.98;100194.78;4911085;28;20051;-84
2023/08/22 01:04:05;;;;;;;8.00;4.97;;;;;;;26.39;65.08;100195.16;4926936;28;20146;-85
2023/08/22 01:07:07;;;;;;;6.30;5.15;;;;;;;26.25;65.43;100187.38;4879395;28;20054;-85
2023/08/22 01:09:39;;;;;;;6.38;5.40;;;;;;;26.35;65.13;100193.09;4910447;29;20040;-84
2023/08/22 01:12:22;;;;;;;8.85;4.95;;;;;;;26.28;65.48;100193.22;4914882;28;20055;-84
2023/08/22 01:15:05;;;;;;;9.95;5.13;;;;;;;26.14;65.96;100192.53;4925392;29;20063;-84
2023/08/22 01:17:33;;;;;;;7.10;5.10;;;;;;;26.26;65.61;100194.50;4918056;28;20106;-84
2023/08/22 01:19:59;;;;;;;10.32;5.60;;;;;;;26.28;65.42;100192.34;4946983;28;20151;-84
2023/08/22 01:22:26;;;;;;;7.75;5.90;;;;;;;26.27;65.39;100198.88;4894694;28;20153;-84
2023/08/22 01:24:53;;;;;;;8.98;5.63;;;;;;;26.24;65.39;100191.19;4927758;28;20069;-84
2023/08/22 01:27:21;;;;;;;6.15;4.95;;;;;;;26.25;64.91;100182.75;4925942;28;20066;-85
2023/08/22 01:29:56;;;;;;;8.20;5.20;;;;;;;26.19;65.24;100189.13;4921635;28;20055;-84
2023/08/22 01:32:37;;;;;;;6.03;5.43;;;;;;;26.12;64.91;100185.66;4936864;28;20054;-84
2023/08/22 01:35:05;;;;;;;8.07;5.38;;;;;;;26.19;64.97;100192.69;4897587;29;20123;-84
2023/08/22 01:37:33;;;;;;;6.68;4.88;;;;;;;26.20;65.09;100183.47;4929359;28;20135;-84
2023/08/22 01:40:04;;;;;;;9.02;6.00;;;;;;;26.19;65.14;100191.84;4923194;28;20058;-84
2023/08/22 01:42:32;;;;;;;6.57;5.53;;;;;;;26.13;65.50;100188.19;4898980;28;20083;-84
2023/08/22 01:44:58;;;;;;;8.50;5.20;;;;;;;26.13;65.21;100187.31;4912020;28;20063;-84
2023/08/22 01:47:25;;;;;;;8.68;5.10;;;;;;;26.11;65.63;100182.13;4921481;29;20047;-84
2023/08/22 01:49:52;;;;;;;6.75;5.38;;;;;;;26.11;65.05;100181.28;4939724;28;20074;-84
2023/08/22 01:52:20;;;;;;;9.20;5.72;;;;;;;26.11;64.99;100179.41;4934860;28;20440;-85
2023/08/22 01:54:48;;;;;;;9.98;5.75;;;;;;;26.10;64.71;100187.78;4921434;28;20130;-84
2023/08/22 01:57:15;;;;;;;5.88;5.20;;;;;;;26.09;64.96;100181.50;4911504;28;20059;-84
2023/08/22 01:59:42;;;;;;;8.38;5.03;;;;;;;26.09;64.71;100186.13;4927490;28;20055;-84
2023/08/22 02:02:08;;;;;;;8.40;5.10;;;;;;;26.05;64.74;100184.91;4923955;28;20115;-84
2023/08/22 02:04:35;;;;;;;8.07;5.38;;;;;;;26.04;64.44;100186.00;4911017;29;20051;-84
2023/08/22 02:07:04;;;;;;;9.43;4.80;;;;;;;25.99;64.76;100187.50;4922970;28;20797;-84
2023/08/22 02:09:30;;;;;;;6.93;5.28;;;;;;;25.95;65.09;100182.72;4924892;28;20047;-84
2023/08/22 02:11:57;;;;;;;9.23;5.18;;;;;;;25.92;65.38;100185.91;4935558;28;20043;-84
2023/08/22 02:14:26;;;;;;;8.70;5.35;;;;;;;25.90;65.49;100188.88;4910753;28;20099;-84
2023/08/22 02:16:52;;;;;;;8.50;5.03;;;;;;;25.90;65.45;100193.47;4951858;28;20571;-84
2023/08/22 02:19:19;;;;;;;6.57;5.07;;;;;;;25.84;65.92;100189.75;4926372;28;20102;-84
2023/08/22 02:21:46;;;;;;;9.85;5.97;;;;;;;25.83;65.84;100181.81;4924055;28;20483;-84
2023/08/22 02:24:14;;;;;;;7.63;5.07;;;;;;;25.81;65.88;100182.03;4944341;28;20488;-85
2023/08/22 02:26:42;;;;;;;6.90;5.22;;;;;;;25.76;66.17;100182.72;4926079;28;25690;-85
2023/08/22 02:29:09;;;;;;;6.03;5.00;;;;;;;25.76;65.99;100187.34;4951502;28;20545;-84
2023/08/22 02:31:36;;;;;;;9.07;5.03;;;;;;;25.75;66.34;100185.69;4911446;28;20047;-84
2023/08/22 02:34:04;;;;;;;5.78;5.18;;;;;;;25.75;66.17;100177.53;4907257;28;20771;-84
2023/08/22 02:36:32;;;;;;;7.80;4.80;;;;;;;25.75;65.99;100175.63;4935960;28;20042;-84
2023/08/22 02:38:58;;;;;;;6.13;5.32;;;;;;;25.73;66.02;100171.47;4919677;28;20051;-84
2023/08/22 02:41:25;;;;;;;7.40;5.22;;;;;;;25.69;66.38;100168.34;4936866;28;20751;-84
2023/08/22 02:43:52;;;;;;;6.82;5.47;;;;;;;25.70;66.12;100163.78;4903532;29;20519;-84
2023/08/22 02:46:19;;;;;;;8.23;5.30;;;;;;;25.71;66.38;100159.97;4939117;28;20059;-84
2023/08/22 02:48:47;;;;;;;7.40;5.03;;;;;;;25.68;66.10;100157.72;4916481;28;20655;-84
2023/08/22 02:51:13;;;;;;;5.53;4.95;;;;;;;25.62;66.24;100159.47;4937029;28;20912;-84
2023/08/22 02:53:40;;;;;;;8.32;5.43;;;;;;;25.60;66.63;100163.47;4943856;28;20043;-84
2023/08/22 02:56:08;;;;;;;8.27;5.05;;;;;;;25.63;66.61;100158.41;4911362;28;20115;-84
2023/08/22 02:58:34;;;;;;;7.38;5.22;;;;;;;25.60;66.55;100160.75;4907180;28;20044;-84
2023/08/22 03:01:04;;;;;;;6.55;5.15;;;;;;;25.59;66.35;100157.19;4937327;28;20070;-83
2023/08/22 03:03:32;;;;;;;8.43;5.45;;;;;;;25.59;66.55;100161.78;4910924;28;20054;-84
2023/08/22 03:05:59;;;;;;;7.78;4.75;;;;;;;25.57;66.55;100162.03;4944640;28;20059;-84
2023/08/22 03:08:27;;;;;;;6.38;4.43;;;;;;;25.58;66.43;100169.13;4909359;28;20757;-84
2023/08/22 03:10:59;;;;;;;6.35;4.85;;;;;;;25.49;66.72;100162.31;4947381;28;20062;-84
2023/08/22 03:13:30;;;;;;;8.48;4.53;;;;;;;25.53;66.61;100167.06;4938187;28;20099;-84
2023/08/22 03:16:00;;;;;;;5.88;4.65;;;;;;;25.50;66.57;100172.16;4909087;28;20043;-85
2023/08/22 03:18:31;;;;;;;6.00;5.13;;;;;;;25.48;66.82;100175.09;4930849;28;20051;-84
2023/08/22 03:20:58;;;;;;;7.25;5.47;;;;;;;25.51;66.87;100165.66;4890014;28;20059;-84
2023/08/22 03:23:26;;;;;;;5.30;4.80;;;;;;;25.48;66.60;100171.53;4908653;29;20044;-84
2023/08/22 03:25:55;;;;;;;9.25;5.82;;;;;;;25.45;66.88;100180.16;4908481;28;20138;-84
2023/08/22 03:28:23;;;;;;;8.68;5.65;;;;;;;25.43;67.00;100180.38;4920911;28;20066;-84
2023/08/22 03:31:03;;;;;;;7.47;5.20;;;;;;;25.39;66.84;100178.31;4941150;28;20453;-85
2023/08/22 03:33:33;;;;;;;10.82;5.30;;;;;;;25.46;66.45;100185.34;4922923;28;20185;-84
2023/08/22 03:36:03;;;;;;;6.43;4.90;;;;;;;25.41;66.80;100179.75;4942197;28;20043;-84
2023/08/22 03:38:31;;;;;;;6.53;4.80;;;;;;;25.42;66.57;100180.59;4923683;28;20677;-85
2023/08/22 03:40:57;;;;;;;6.47;4.75;;;;;;;25.42;66.35;100184.16;4901291;28;20053;-84
2023/08/22 03:43:24;;;;;;;5.93;5.28;;;;;;;25.41;66.36;100176.22;4933734;28;20051;-84
2023/08/22 03:45:51;;;;;;;7.00;4.82;;;;;;;25.34;66.36;100174.41;4915479;28;20065;-83
2023/08/22 03:48:18;;;;;;;8.05;5.03;;;;;;;25.30;66.33;100175.88;4898740;28;20555;-84
2023/08/22 03:50:47;;;;;;;11.02;5.25;;;;;;;25.29;66.20;100184.25;4922801;28;20102;-84
2023/08/22 03:53:15;;;;;;;8.10;5.40;;;;;;;25.27;66.10;100184.50;4894286;28;20047;-84
2023/08/22 03:55:43;;;;;;;9.32;5.00;;;;;;;25.27;66.36;100184.50;4910528;28;20102;-83
2023/08/22 03:58:10;;;;;;;7.47;4.60;;;;;;;25.24;66.25;100182.25;4921820;28;20047;-84
2023/08/22 04:00:38;;;;;;;7.38;4.93;;;;;;;25.23;66.29;100182.44;4924754;28;20127;-84
2023/08/22 04:03:05;;;;;;;6.65;4.63;;;;;;;25.19;66.41;100184.78;4901594;28;20138;-84
2023/08/22 04:05:32;;;;;;;8.20;4.93;;;;;;;25.20;66.32;100182.91;4910446;28;20047;-74
2023/08/22 04:08:01;;;;;;;6.30;4.78;;;;;;;25.15;66.28;100177.28;4908511;28;20126;-76
2023/08/22 04:10:27;;;;;;;7.40;4.88;;;;;;;25.16;66.36;100178.91;4920184;29;20408;-75
2023/08/22 04:12:54;;;;;;;7.45;5.00;;;;;;;25.15;66.24;100178.09;4927275;28;20047;-74
2023/08/22 04:15:21;;;;;;;7.10;5.13;;;;;;;25.17;66.45;100184.19;4935839;28;20103;-75
2023/08/22 04:17:48;;;;;;;6.57;5.30;;;;;;;25.15;66.52;100180.81;4909235;28;20043;-76
2023/08/22 04:20:17;;;;;;;9.48;5.38;;;;;;;25.08;66.81;100182.75;4910551;28;20044;-75
2023/08/22 04:22:44;;;;;;;7.18;5.03;;;;;;;25.04;66.97;100184.28;4900764;28;20048;-75
2023/08/22 04:25:11;;;;;;;7.72;5.05;;;;;;;25.08;66.94;100186.28;4893517;28;20039;-74
2023/08/22 04:27:39;;;;;;;6.43;4.65;;;;;;;25.04;67.02;100192.44;4942102;28;20050;-74
2023/08/22 04:30:09;;;;;;;7.60;5.13;;;;;;;25.01;67.16;100198.28;4902755;28;20483;-74
2023/08/22 04:32:36;;;;;;;8.93;5.18;;;;;;;25.03;67.01;100190.75;4917209;28;20139;-74
2023/08/22 04:35:05;;;;;;;10.60;5.40;;;;;;;25.02;67.02;100197.25;4906096;28;20039;-74
2023/08/22 04:37:32;;;;;;;6.40;5.78;;;;;;;25.00;67.40;100185.75;4933236;28;20039;-74
2023/08/22 04:40:00;;;;;;;6.93;4.88;;;;;;;25.00;67.41;100191.19;4931622;28;20407;-74
2023/08/22 04:42:38;;;;;;;9.18;5.07;;;;;;;24.97;67.38;100184.31;4927465;28;20039;-75
2023/08/22 04:45:07;;;;;;;9.32;5.03;;;;;;;24.99;67.25;100189.53;4911478;28;20383;-74
2023/08/22 04:47:34;;;;;;;8.02;5.50;;;;;;;24.97;67.38;100186.22;4929219;28;20062;-75
2023/08/22 04:50:01;;;;;;;10.93;5.47;;;;;;;24.95;67.40;100191.84;4922105;28;20122;-75
2023/08/22 04:52:29;;;;;;;7.47;4.72;;;;;;;24.94;67.23;100183.94;4912021;28;20055;-75
2023/08/22 04:54:56;;;;;;;6.03;5.07;;;;;;;24.96;67.31;100187.25;4893191;29;20052;-75
2023/08/22 04:57:23;;;;;;;5.85;5.22;;;;;;;24.96;67.30;100184.53;4935427;28;20050;-76
2023/08/22 04:59:53;;;;;;;9.77;5.78;;;;;;;24.95;67.58;100191.84;4912943;28;20130;-77
2023/08/22 05:02:24;;;;;;;11.93;5.28;;;;;;;24.95;67.53;100200.00;4929283;28;20638;-76
2023/08/22 05:04:52;;;;;;;8.77;5.13;;;;;;;24.95;67.11;100193.75;4944364;28;20157;-77
2023/08/22 05:07:19;;;;;;;12.30;5.20;;;;;;;24.99;67.13;100192.25;4928405;28;20387;-75
2023/08/22 05:09:46;;;;;;;8.65;5.70;;;;;;;25.02;66.54;100195.34;4915234;28;20070;-75
2023/08/22 05:12:13;;;;;;;9.65;5.82;;;;;;;25.02;67.02;100189.09;4915459;28;20058;-74
2023/08/22 05:14:41;;;;;;;10.43;5.75;;;;;;;25.09;66.74;100207.00;4912696;28;20110;-75
2023/08/22 05:17:08;;;;;;;7.93;5.97;;;;;;;25.08;67.05;100196.34;4942534;28;20507;-74
2023/08/22 05:19:37;;;;;;;11.65;5.97;;;;;;;25.07;66.71;100202.84;4929974;28;20130;-74
2023/08/22 05:22:04;;;;;;;7.72;5.40;;;;;;;25.10;67.25;100210.53;4940901;28;20154;-74
2023/08/22 05:24:31;;;;;;;8.75;5.50;;;;;;;25.11;67.21;100204.03;4899264;28;20502;-74
2023/08/22 05:26:58;;;;;;;7.55;5.40;;;;;;;25.14;67.30;100206.34;4930064;28;20166;-74
2023/08/22 05:29:25;;;;;;;12.75;6.40;;;;;;;25.12;66.82;100209.28;4929337;28;20507;-77
2023/08/22 05:31:53;;;;;;;12.05;8.23;;;;;;;25.16;66.33;100212.38;4929479;29;20050;-74
2023/08/22 05:34:20;;;;;;;10.90;7.65;;;;;;;25.14;65.91;100211.78;4926451;28;20065;-74
2023/08/22 05:36:47;;;;;;;8.43;6.97;;;;;;;25.17;65.92;100213.25;4922841;28;20491;-75
2023/08/22 05:39:14;;;;;;;12.90;7.07;;;;;;;25.14;66.01;100200.91;4926932;28;20503;-74
2023/08/22 05:41:41;;;;;;;13.82;6.28;;;;;;;25.18;65.91;100213.00;4913357;29;20048;-75
2023/08/22 05:44:08;;;;;;;10.32;6.82;;;;;;;25.20;66.24;100205.47;4944178;28;20055;-76
2023/08/22 05:46:37;;;;;;;8.55;5.90;;;;;;;25.21;65.95;100203.56;4896776;29;20058;-74
2023/08/22 05:49:05;;;;;;;10.02;5.95;;;;;;;25.25;66.22;100207.53;4944051;28;20056;-74
2023/08/22 05:51:32;;;;;;;8.32;5.85;;;;;;;25.22;66.20;100200.66;4923414;28;20060;-75
2023/08/22 05:54:00;;;;;;;14.65;6.25;;;;;;;25.18;66.54;100193.97;4930198;28;20051;-76
2023/08/22 05:56:27;;;;;;;7.93;6.03;;;;;;;25.26;66.40;100201.84;4909860;28;20057;-75
2023/08/22 05:58:55;;;;;;;7.40;5.75;;;;;;;25.25;66.51;100205.63;4926866;28;20436;-75
2023/08/22 06:01:21;;;;;;;9.57;5.93;;;;;;;25.29;66.47;100204.13;4914926;28;20061;-75
2023/08/22 06:03:48;;;;;;;8.82;5.97;;;;;;;25.30;66.29;100207.69;4906890;28;20496;-74
2023/08/22 06:06:15;;;;;;;11.75;5.97;;;;;;;25.30;66.67;100207.69;4917441;28;20070;-74
2023/08/22 06:08:42;;;;;;;8.45;5.70;;;;;;;25.32;66.96;100202.88;4924314;28;20094;-74
2023/08/22 06:11:10;;;;;;;9.25;6.60;;;;;;;25.30;66.63;100208.50;4910992;28;20040;-74
2023/08/22 06:13:36;;;;;;;9.55;6.28;;;;;;;25.27;66.50;100202.69;4899645;28;20122;-75
2023/08/22 06:16:04;;;;;;;8.60;5.93;;;;;;;25.26;66.97;100206.47;4938086;28;20078;-75
2023/08/22 06:18:31;;;;;;;7.80;5.95;;;;;;;25.29;66.95;100206.00;4912350;28;20052;-75
2023/08/22 06:20:59;;;;;;;12.48;5.57;;;;;;;25.37;67.24;100210.34;4911808;28;20066;-75
2023/08/22 06:23:26;;;;;;;7.55;5.68;;;;;;;25.37;67.09;100213.06;4914083;28;20066;-75
2023/08/22 06:25:55;;;;;;;7.78;5.40;;;;;;;25.42;66.92;100215.94;4905746;28;20052;-74
2023/08/22 06:28:22;;;;;;;10.82;5.63;;;;;;;25.46;67.00;100214.44;4910650;28;20503;-74
2023/08/22 06:30:49;;;;;;;6.75;5.55;;;;;;;25.45;66.63;100220.94;4906263;28;20126;-74
2023/08/22 06:33:16;;;;;;;8.00;5.78;;;;;;;25.44;66.94;100221.97;4927864;28;20051;-74
2023/08/22 06:35:47;;;;;;;10.05;6.25;;;;;;;25.46;66.89;100215.25;4923063;28;20048;-74
2023/08/22 06:38:13;;;;;;;9.63;5.78;;;;;;;25.51;66.97;100220.84;4921354;28;20099;-74
2023/08/22 06:40:42;;;;;;;9.55;6.03;;;;;;;25.50;66.81;100221.91;4920544;28;20047;-74
2023/08/22 06:43:09;;;;;;;7.60;5.95;;;;;;;25.51;67.25;100220.03;4939294;28;20055;-74
2023/08/22 06:45:36;;;;;;;8.75;6.38;;;;;;;25.50;67.43;100219.19;4920390;28;20567;-74
2023/08/22 06:48:04;;;;;;;10.95;6.47;;;;;;;25.52;67.34;100222.53;4904622;28;20061;-74
2023/08/22 06:50:31;;;;;;;9.23;6.43;;;;;;;25.54;67.46;100211.41;4910283;28;20051;-75
2023/08/22 06:52:58;;;;;;;11.98;6.20;;;;;;;25.56;67.47;100221.00;4952013;28;20051;-74
2023/08/22 06:55:25;;;;;;;10.77;5.82;;;;;;;25.58;67.39;100219.97;4942021;28;20043;-75
2023/08/22 06:57:52;;;;;;;10.27;6.10;;;;;;;25.59;67.81;100222.44;4942562;28;20047;-74
2023/08/22 07:00:19;;;;;;;11.32;6.28;;;;;;;25.59;67.79;100227.88;4920710;28;20136;-74
2023/08/22 07:02:47;;;;;;;9.48;6.28;;;;;;;25.61;67.50;100222.22;4927290;28;20151;-75
2023/08/22 07:05:15;;;;;;;8.63;5.53;;;;;;;25.64;68.05;100227.22;4921005;28;20047;-75
2023/08/22 07:07:41;;;;;;;10.07;5.80;;;;;;;25.64;67.98;100224.50;4936613;28;20155;-74
2023/08/22 07:10:10;;;;;;;12.57;6.05;;;;;;;25.67;67.49;100226.75;4926031;28;20051;-74
2023/08/22 07:12:38;;;;;;;9.90;6.10;;;;;;;25.67;67.59;100222.19;4922292;28;20058;-74
2023/08/22 07:15:06;;;;;;;11.40;6.13;;;;;;;25.69;67.98;100228.19;4936413;28;20071;-75
2023/08/22 07:17:35;;;;;;;9.15;5.93;;;;;;;25.69;67.60;100230.91;4939827;28;20052;-73
2023/08/22 07:20:03;;;;;;;10.38;6.00;;;;;;;25.75;67.47;100234.66;4941485;28;20058;-74
2023/08/22 07:22:30;;;;;;;7.95;6.53;;;;;;;25.75;67.92;100229.22;4911122;28;20052;-74
2023/08/22 07:24:56;;;;;;;10.27;5.80;;;;;;;25.77;67.61;100232.50;4947358;28;20071;-74
2023/08/22 07:27:23;;;;;;;16.02;6.43;;;;;;;25.79;67.87;100224.97;4934697;28;20054;-74
2023/08/22 07:29:50;;;;;;;8.00;6.03;;;;;;;25.85;68.20;100223.25;4952835;28;20059;-74
2023/08/22 07:32:20;;;;;;;7.65;6.20;;;;;;;25.89;68.59;100225.28;4928264;28;20956;-74
2023/08/22 07:34:48;;;;;;;8.43;6.05;;;;;;;25.91;68.01;100227.78;4910559;28;20452;-74
2023/08/22 07:37:15;;;;;;;12.38;6.18;;;;;;;25.94;67.78;100230.06;4902393;28;20051;-74
2023/08/22 07:39:42;;;;;;;11.55;5.90;;;;;;;25.94;67.92;100230.88;4935321;28;20418;-76
2023/08/22 07:42:09;;;;;;;8.85;6.03;;;;;;;25.95;67.60;100229.84;4939782;28;20696;-74
2023/08/22 07:44:36;;;;;;;10.00;6.15;;;;;;;26.03;67.60;100227.84;4923328;28;20435;-75
2023/08/22 07:47:03;;;;;;;8.60;6.97;;;;;;;26.05;67.52;100229.28;4933781;28;20130;-74
2023/08/22 07:49:30;;;;;;;8.75;5.80;;;;;;;26.05;67.36;100232.00;4935299;28;20067;-74
2023/08/22 07:51:56;;;;;;;9.20;6.38;;;;;;;26.10;67.69;100231.31;4920736;28;20047;-74
2023/08/22 07:54:23;;;;;;;10.13;5.78;;;;;;;26.12;68.29;100230.03;4936062;28;20422;-74
2023/08/22 07:56:50;;;;;;;7.60;5.95;;;;;;;26.12;68.49;100227.31;4922278;28;20135;-74
2023/08/22 07:59:30;;;;;;;9.68;6.07;;;;;;;26.13;67.97;100223.56;4950746;28;20087;-74
2023/08/22 08:01:57;;;;;;;9.10;5.75;;;;;;;26.15;67.94;100228.75;4922028;28;20040;-74
2023/08/22 08:04:24;;;;;;;9.23;6.05;;;;;;;26.18;68.23;100214.69;4951348;28;20051;-74
2023/08/22 08:06:51;;;;;;;8.60;5.45;;;;;;;26.23;68.55;100235.78;4919562;28;20071;-74
2023/08/22 08:09:18;;;;;;;9.50;5.93;;;;;;;26.23;68.49;100214.00;4914040;28;20146;-74
2023/08/22 08:11:58;;;;;;;7.28;5.85;;;;;;;26.28;68.76;100215.00;4914516;28;20061;-74
2023/08/22 08:14:25;;;;;;;12.15;5.70;;;;;;;26.31;68.88;100221.88;4905701;28;20134;-88
2023/08/22 08:16:52;;;;;;;8.02;5.90;;;;;;;26.34;69.14;100221.41;4929627;28;20067;-87
2023/08/22 08:19:19;;;;;;;6.18;4.97;;;;;;;26.38;69.33;100226.16;4948065;28;20042;-87
2023/08/22 08:21:46;;;;;;;8.77;5.78;;;;;;;26.43;69.39;100214.56;4935464;28;20122;-88
2023/08/22 08:24:14;;;;;;;7.43;4.97;;;;;;;26.47;69.36;100220.38;4921251;28;20055;-88
2023/08/22 08:26:41;;;;;;;9.15;6.00;;;;;;;26.55;69.54;100209.19;4934405;28;20550;-90
2023/08/22 08:29:09;;;;;;;10.52;5.75;;;;;;;26.58;68.06;100215.00;4937329;28;20502;-90
2023/08/22 08:31:35;;;;;;;5.68;5.00;;;;;;;26.63;68.33;100212.41;4948314;28;20501;-89
2023/08/22 08:34:02;;;;;;;8.65;6.30;;;;;;;26.68;68.59;100213.63;4949748;28;20526;-90
2023/08/22 08:36:31;;;;;;;10.57;5.85;;;;;;;26.71;68.90;100207.69;4932629;28;20543;-91
2023/08/22 08:38:58;;;;;;;9.05;5.63;;;;;;;26.80;68.04;100219.94;4934884;28;20062;-90
2023/08/22 08:41:25;;;;;;;10.50;5.88;;;;;;;26.83;66.90;100203.13;4934653;28;20043;-90
2023/08/22 08:43:52;;;;;;;10.20;5.70;;;;;;;26.86;66.36;100219.00;4948318;28;20647;-90
2023/08/22 08:46:19;;;;;;;8.05;5.47;;;;;;;26.90;65.94;100214.75;4935256;28;20826;-89
2023/08/22 08:48:46;;;;;;;6.30;5.70;;;;;;;26.94;65.36;100209.66;4938887;28;20055;-89
2023/08/22 08:51:16;;;;;;;10.77;6.20;;;;;;;26.95;65.37;100211.31;4940093;28;21831;-82
2023/08/22 08:53:42;;;;;;;7.18;6.50;;;;;;;26.97;65.74;100220.06;4938016;28;20047;-89
2023/08/22 08:56:11;;;;;;;6.57;5.63;;;;;;;26.97;64.43;100207.28;4951529;28;20439;-89
2023/08/22 08:58:38;;;;;;;8.32;5.93;;;;;;;27.01;65.00;100215.81;4936030;28;20051;-89
2023/08/22 09:01:07;;;;;;;9.10;6.05;;;;;;;27.02;64.62;100207.44;4936319;28;20561;-89
2023/08/22 09:03:34;;;;;;;8.88;5.75;;;;;;;27.06;64.34;100215.94;4909960;28;20127;-90
2023/08/22 09:06:00;;;;;;;6.65;5.43;;;;;;;27.09;63.78;100217.38;4935917;28;20058;-90
2023/08/22 09:08:27;;;;;;;7.35;4.88;;;;;;;27.13;62.56;100211.22;4951514;28;20051;-83
2023/08/22 09:10:54;;;;;;;6.05;4.20;;;;;;;27.14;60.96;100206.59;4908700;28;20063;-90
2023/08/22 09:13:27;;;;;;;5.88;4.45;;;;;;;27.16;59.99;100212.66;4912668;28;20079;-90
2023/08/22 09:16:16;;;;;;;9.07;4.70;;;;;;;27.17;59.86;100215.16;4912885;28;20054;-89
2023/08/22 09:18:43;;;;;;;6.47;4.80;;;;;;;27.20;60.58;100219.34;4911490;28;20039;-89
2023/08/22 09:21:10;;;;;;;6.10;4.50;;;;;;;27.22;60.56;100212.56;4902548;28;20070;-86
2023/08/22 09:23:42;;;;;;;6.85;4.90;;;;;;;27.24;60.45;100204.97;4951151;28;20051;-90
2023/08/22 09:26:12;;;;;;;8.50;5.32;;;;;;;27.28;60.31;100214.34;4829031;28;20047;-85
2023/08/22 09:28:40;;;;;;;6.82;5.05;;;;;;;27.31;60.74;100212.22;4878667;28;20059;-85
2023/08/22 09:31:07;;;;;;;5.88;4.43;;;;;;;27.32;60.89;100216.59;4903127;28;20055;-84
2023/08/22 09:33:47;;;;;;;6.32;5.05;;;;;;;27.27;60.10;100214.56;4922578;28;20052;-84
2023/08/22 09:36:19;;;;;;;7.60;5.03;;;;;;;27.38;60.88;100212.94;4922941;28;20496;-84
2023/08/22 09:38:57;;;;;;;6.50;5.25;;;;;;;27.37;59.87;100211.25;4922383;28;20058;-84
2023/08/22 09:41:26;;;;;;;5.07;4.60;;;;;;;27.40;60.15;100205.31;4936398;28;20051;-85
2023/08/22 09:44:00;;;;;;;5.63;4.72;;;;;;;27.45;60.12;100208.16;4912167;28;20061;-83
2023/08/22 09:46:27;;;;;;;6.90;4.70;;;;;;;27.39;59.94;100212.69;4909288;28;20039;-84
2023/08/22 09:48:59;;;;;;;9.52;5.60;;;;;;;27.39;60.25;100212.69;4916156;28;20422;-83
2023/08/22 09:51:26;;;;;;;6.50;4.78;;;;;;;27.41;60.54;100213.28;4919429;28;20047;-83
2023/08/22 09:53:59;;;;;;;8.07;5.38;;;;;;;27.43;61.06;100213.88;4910088;28;20047;-84
2023/08/22 09:56:27;;;;;;;5.70;5.05;;;;;;;27.46;60.31;100216.13;4900654;28;20039;-83
2023/08/22 09:58:53;;;;;;;7.15;5.18;;;;;;;27.45;60.33;100203.56;4935698;28;20122;-83
2023/08/22 10:01:20;;;;;;;7.18;5.70;;;;;;;27.50;60.60;100200.09;4913318;28;20047;-84
2023/08/22 10:03:53;;;;;;;7.30;5.68;;;;;;;27.50;60.39;100202.81;4926507;29;20111;-84
2023/08/22 10:06:27;;;;;;;6.50;5.20;;;;;;;27.47;60.37;100209.59;4934867;28;20942;-84
2023/08/22 10:09:11;;;;;;;6.97;5.25;;;;;;;27.52;59.92;100195.25;4909620;28;20055;-94
2023/08/22 10:11:49;;;;;;;8.50;5.07;;;;;;;27.51;60.04;100207.22;4959670;28;20047;-87
2023/08/22 10:14:43;;;;;;;7.68;5.72;;;;;;;27.51;59.96;100198.22;4943219;28;20039;-92
2023/08/22 10:17:11;;;;;;;9.70;5.75;;;;;;;27.58;59.91;100194.31;4882207;28;20148;-89
2023/08/22 10:19:38;;;;;;;8.73;4.82;;;;;;;27.62;58.84;100195.47;4896893;28;20039;-91
2023/08/22 10:22:15;;;;;;;6.35;4.57;;;;;;;27.60;58.80;100196.78;4942939;28;20047;-92
2023/08/22 10:24:42;;;;;;;5.10;4.68;;;;;;;27.68;58.60;100197.25;4928388;28;20039;-90
2023/08/22 10:27:13;;;;;;;6.93;4.43;;;;;;;27.68;58.77;100193.66;4912012;28;20415;-90
2023/08/22 10:29:45;;;;;;;5.85;4.80;;;;;;;27.65;57.84;100189.53;4923500;28;20043;-92
2023/08/22 10:32:20;;;;;;;5.57;4.55;;;;;;;27.65;57.25;100200.44;4918942;28;20142;-89
2023/08/22 10:34:46;;;;;;;6.10;4.63;;;;;;;27.65;57.75;100185.97;4912634;29;20039;-89
2023/08/22 10:37:20;;;;;;;5.93;4.40;;;;;;;27.72;57.59;100186.69;4908309;28;20423;-88
2023/08/22 10:39:48;;;;;;;4.95;4.05;;;;;;;27.76;57.86;100189.75;4922142;28;20122;-93
2023/08/22 10:42:17;;;;;;;5.18;4.00;;;;;;;27.78;56.52;100187.59;4928618;28;20054;-94
2023/08/22 10:45:08;;;;;;;7.22;4.32;;;;;;;27.68;56.82;100186.34;4895540;28;20083;-93
2023/08/22 10:47:35;;;;;;;4.90;4.43;;;;;;;27.81;57.20;100193.47;4926959;28;20075;-93
2023/08/22 10:50:10;;;;;;;6.53;4.72;;;;;;;27.78;57.12;100187.59;4915298;28;20048;-93
2023/08/22 10:52:43;;;;;;;5.32;4.25;;;;;;;27.84;57.74;100186.69;4916520;28;20054;-92
2023/08/22 10:55:12;;;;;;;9.57;4.63;;;;;;;27.85;57.88;100186.44;4942369;28;20111;-93
2023/08/22 10:57:46;;;;;;;8.07;4.75;;;;;;;27.85;57.17;100189.16;4909064;28;20547;-92
2023/08/22 11:00:22;;;;;;;7.03;4.82;;;;;;;27.87;57.10;100187.03;4904902;28;20050;-93
2023/08/22 11:02:57;;;;;;;10.23;4.95;;;;;;;27.89;57.15;100181.34;4909838;28;20055;-94
2023/08/22 11:05:24;;;;;;;6.68;5.00;;;;;;;27.93;56.22;100183.31;4906935;28;20043;-89
2023/08/22 11:07:54;;;;;;;6.18;4.50;;;;;;;27.97;57.14;100180.13;4911397;28;20047;-89
2023/08/22 11:10:22;;;;;;;6.60;4.65;;;;;;;27.97;57.04;100175.50;4898282;28;20048;-88
2023/08/22 11:12:50;;;;;;;7.95;5.05;;;;;;;28.00;56.48;100190.56;4935202;28;20047;-91
2023/08/22 11:15:17;;;;;;;5.05;4.60;;;;;;;27.98;56.30;100177.16;4936437;28;20239;-90
2023/08/22 11:17:48;;;;;;;7.78;5.65;;;;;;;28.00;57.06;100176.91;4913368;28;20050;-90
2023/08/22 11:20:17;;;;;;;6.60;5.38;;;;;;;28.06;57.62;100175.94;4926405;28;20043;-93
2023/08/22 11:22:44;;;;;;;8.13;5.50;;;;;;;28.08;57.34;100182.81;4928516;28;20136;-91
2023/08/22 11:25:12;;;;;;;9.07;5.28;;;;;;;28.07;57.03;100174.88;4896664;28;20059;-91
2023/08/22 11:27:40;;;;;;;7.22;5.22;;;;;;;28.10;56.30;100177.13;4924402;29;20463;-91
2023/08/22 11:30:08;;;;;;;6.65;5.20;;;;;;;28.11;56.08;100195.16;4909849;28;20091;-93